createdAt,value
2022-10-17T00:01:01.055Z,22.01
2022-10-17T00:02:03.172Z,24.16
2022-10-17T00:03:05.530Z,24.01
2022-10-17T00:04:07.609Z,22.07
2022-10-17T00:05:09.480Z,24.61
2022-10-17T00:06:14.067Z,23.78
2022-10-17T00:07:15.995Z,23.69
2022-10-17T00:08:18.597Z,25.36
2022-10-17T00:09:20.679Z,24.37
2022-10-17T00:10:23.075Z,24.79
2022-10-17T00:11:24.956Z,23.87
2022-10-17T00:12:27.299Z,24.50
2022-10-17T00:13:30.322Z,24.82
2022-10-17T00:14:32.553Z,23.07
2022-10-17T00:15:34.748Z,23.75
2022-10-17T00:16:37.056Z,24.78
2022-10-17T00:17:39.064Z,21.92
2022-10-17T00:18:40.977Z,22.61
2022-10-17T00:19:43.120Z,24.03
2022-10-17T00:20:45.439Z,21.99
2022-10-17T00:21:48.873Z,21.67
2022-10-17T00:22:51.475Z,22.30
2022-10-17T00:23:54.979Z,23.13
2022-10-17T00:24:57.179Z,21.78
2022-10-17T00:26:05.000Z,23.18
2022-10-17T00:27:07.127Z,22.65
2022-10-17T00:29:21.509Z,23.73
2022-10-17T00:30:23.820Z,24.37
2022-10-17T00:31:25.943Z,24.09
2022-10-17T00:32:28.275Z,24.47
2022-10-17T00:33:31.646Z,23.34
2022-10-17T00:34:33.808Z,23.87
2022-10-17T00:35:35.723Z,23.69
2022-10-17T00:36:37.912Z,23.53
2022-10-17T00:37:40.153Z,24.56
2022-10-17T00:38:44.389Z,24.78
2022-10-17T00:39:46.328Z,25.65
2022-10-17T00:40:48.495Z,22.76
2022-10-17T00:41:50.760Z,24.59
2022-10-17T00:42:52.826Z,24.56
2022-10-17T00:44:01.079Z,24.07
2022-10-17T00:45:06.905Z,24.27
2022-10-17T00:46:09.025Z,23.78
2022-10-17T00:47:17.658Z,22.73
2022-10-17T00:48:23.311Z,24.01
2022-10-17T00:49:27.966Z,23.98
2022-10-17T00:50:30.751Z,23.45
2022-10-17T00:51:48.693Z,23.19
2022-10-17T00:52:52.221Z,23.21
2022-10-17T00:53:55.595Z,22.29
2022-10-17T00:55:03.923Z,21.79
2022-10-17T00:56:06.759Z,22.08
2022-10-17T00:57:10.207Z,21.50
2022-10-17T00:58:12.863Z,21.49
2022-10-17T00:59:17.010Z,22.22
2022-10-17T01:00:19.942Z,20.55
2022-10-17T01:01:22.907Z,21.64
2022-10-17T01:02:25.092Z,21.41
2022-10-17T01:03:27.497Z,19.98
2022-10-17T01:04:29.587Z,20.87
2022-10-17T01:05:31.774Z,20.82
2022-10-17T01:06:33.847Z,20.33
2022-10-17T01:07:37.538Z,20.04
2022-10-17T01:08:40.086Z,21.01
2022-10-17T01:09:44.497Z,20.80
2022-10-17T01:11:08.912Z,19.01
2022-10-17T01:12:26.437Z,20.46
2022-10-17T01:13:35.406Z,20.30
2022-10-17T01:15:03.570Z,22.46
2022-10-17T01:16:26.123Z,20.46
2022-10-17T01:17:57.747Z,20.41
2022-10-17T01:19:15.025Z,19.78
2022-10-17T01:23:08.548Z,20.06
2022-10-17T01:24:31.655Z,20.68
2022-10-17T01:25:52.763Z,20.92
2022-10-17T01:27:04.142Z,20.32
2022-10-17T01:28:27.921Z,21.12
2022-10-17T01:29:33.688Z,21.34
2022-10-17T01:30:59.075Z,19.64
2022-10-17T01:32:16.826Z,20.96
2022-10-17T01:33:31.300Z,21.03
2022-10-17T01:37:09.960Z,20.23
2022-10-17T01:40:53.171Z,21.79
2022-10-17T01:42:01.873Z,21.04
2022-10-17T01:43:16.458Z,21.29
2022-10-17T01:44:31.183Z,21.12
2022-10-17T01:45:42.790Z,21.13
2022-10-17T01:46:48.666Z,19.95
2022-10-17T01:47:53.765Z,18.57
2022-10-17T01:48:59.478Z,18.66
2022-10-17T01:50:14.463Z,19.54
2022-10-17T01:51:20.127Z,19.49
2022-10-17T01:52:28.525Z,20.25
2022-10-17T01:53:37.084Z,20.19
2022-10-17T01:54:42.855Z,20.87
2022-10-17T01:55:47.397Z,20.57
2022-10-17T01:56:53.340Z,19.96
2022-10-17T01:57:59.187Z,20.38
2022-10-17T02:00:21.317Z,20.21
2022-10-17T02:01:26.030Z,22.81
2022-10-17T02:02:28.829Z,22.96
2022-10-17T02:03:32.830Z,22.00
2022-10-17T02:04:35.997Z,22.32
2022-10-17T02:05:40.904Z,22.16
2022-10-17T02:06:43.246Z,22.24
2022-10-17T02:07:45.181Z,22.89
2022-10-17T02:08:49.623Z,23.79
2022-10-17T02:09:52.015Z,23.43
2022-10-17T02:11:03.553Z,23.67
2022-10-17T02:14:05.128Z,22.33
2022-10-17T02:15:26.252Z,21.54
2022-10-17T02:16:32.184Z,21.21
2022-10-17T02:17:50.051Z,21.09
2022-10-17T02:19:01.709Z,21.18
2022-10-17T02:20:07.805Z,21.43
2022-10-17T02:21:22.601Z,21.18
2022-10-17T02:22:31.288Z,21.18
2022-10-17T02:23:43.212Z,20.33
2022-10-17T02:25:01.053Z,19.74
2022-10-17T02:26:12.655Z,19.49
2022-10-17T02:28:22.094Z,19.02
2022-10-17T02:29:27.825Z,19.54
2022-10-17T02:30:53.467Z,18.36
2022-10-17T02:32:02.062Z,18.64
2022-10-17T02:33:10.768Z,19.26
2022-10-17T02:34:28.641Z,19.60
2022-10-17T02:37:49.487Z,19.24
2022-10-17T02:38:53.831Z,20.22
2022-10-17T02:39:59.456Z,19.41
2022-10-17T02:41:03.032Z,21.19
2022-10-17T02:42:08.414Z,20.97
2022-10-17T02:43:11.100Z,20.19
2022-10-17T02:44:14.212Z,20.12
2022-10-17T02:45:17.093Z,20.66
2022-10-17T02:46:22.834Z,21.23
2022-10-17T02:47:34.544Z,20.80
2022-10-17T02:48:39.849Z,20.63
2022-10-17T02:49:45.542Z,20.58
2022-10-17T02:50:54.055Z,21.47
2022-10-17T02:52:02.611Z,21.35
2022-10-17T02:53:08.275Z,21.31
2022-10-17T02:54:39.980Z,20.67
2022-10-17T02:55:51.720Z,19.59
2022-10-17T02:57:13.079Z,21.33
2022-10-17T02:58:24.754Z,21.02
2022-10-17T02:59:30.122Z,21.04
2022-10-17T03:00:33.989Z,20.64
2022-10-17T03:01:36.273Z,20.54
2022-10-17T03:02:44.137Z,18.84
2022-10-17T03:03:46.428Z,20.40
2022-10-17T03:04:48.669Z,20.80
2022-10-17T03:05:51.334Z,20.93
2022-10-17T03:06:53.605Z,22.75
2022-10-17T03:07:56.473Z,21.31
2022-10-17T03:08:58.365Z,21.19
2022-10-17T03:10:00.362Z,21.68
2022-10-17T03:11:02.642Z,20.94
2022-10-17T03:12:05.263Z,21.77
2022-10-17T03:13:07.270Z,21.55
2022-10-17T03:14:09.474Z,21.27
2022-10-17T03:15:12.518Z,22.69
2022-10-17T03:16:14.757Z,22.01
2022-10-17T03:17:17.290Z,21.19
2022-10-17T03:18:19.172Z,21.39
2022-10-17T03:19:21.243Z,20.85
2022-10-17T03:20:23.276Z,21.53
2022-10-17T03:21:25.174Z,22.47
2022-10-17T03:22:27.401Z,21.13
2022-10-17T03:23:29.560Z,22.19
2022-10-17T03:24:31.442Z,22.13
2022-10-17T03:25:33.448Z,21.81
2022-10-17T03:26:35.575Z,20.61
2022-10-17T03:27:37.868Z,22.07
2022-10-17T03:28:40.116Z,22.38
2022-10-17T03:29:42.284Z,22.17
2022-10-17T03:30:44.293Z,21.26
2022-10-17T03:31:46.175Z,20.83
2022-10-17T03:32:48.087Z,20.17
2022-10-17T03:33:49.980Z,20.62
2022-10-17T03:34:51.884Z,20.88
2022-10-17T03:36:00.517Z,20.10
2022-10-17T03:37:02.512Z,19.53
2022-10-17T03:38:05.648Z,20.59
2022-10-17T03:39:07.738Z,20.21
2022-10-17T03:40:10.909Z,18.73
2022-10-17T03:41:13.044Z,19.44
2022-10-17T03:42:14.923Z,18.45
2022-10-17T03:43:16.910Z,19.33
2022-10-17T03:44:20.683Z,20.68
2022-10-17T03:45:22.662Z,22.26
2022-10-17T03:46:29.619Z,27.12
2022-10-17T03:47:32.500Z,31.97
2022-10-17T03:48:34.873Z,30.48
2022-10-17T03:49:36.766Z,30.44
2022-10-17T03:50:38.951Z,30.64
2022-10-17T03:51:42.846Z,30.40
2022-10-17T03:52:48.761Z,29.42
2022-10-17T03:53:52.698Z,26.80
2022-10-17T03:54:54.700Z,26.41
2022-10-17T03:56:00.980Z,24.15
2022-10-17T03:57:05.016Z,24.97
2022-10-17T03:58:07.247Z,23.65
2022-10-17T03:59:12.667Z,24.92
2022-10-17T04:00:17.139Z,23.42
2022-10-17T04:01:21.079Z,22.50
2022-10-17T04:02:23.444Z,19.35
2022-10-17T04:03:27.539Z,20.88
2022-10-17T04:04:29.505Z,19.58
2022-10-17T04:05:31.863Z,18.73
2022-10-17T04:06:35.273Z,18.45
2022-10-17T04:07:39.908Z,19.60
2022-10-17T04:08:42.358Z,17.31
2022-10-17T04:09:45.550Z,19.03
2022-10-17T04:10:49.479Z,19.38
2022-10-17T04:11:51.657Z,18.39
2022-10-17T04:13:02.668Z,17.81
2022-10-17T04:14:05.391Z,17.90
2022-10-17T04:15:08.760Z,18.02
2022-10-17T04:16:16.265Z,16.92
2022-10-17T04:17:18.360Z,18.00
2022-10-17T04:18:20.390Z,17.89
2022-10-17T04:19:22.275Z,18.11
2022-10-17T04:20:24.276Z,17.67
2022-10-17T04:21:28.998Z,17.57
2022-10-17T04:22:32.686Z,17.83
2022-10-17T04:23:35.124Z,17.69
2022-10-17T04:24:37.016Z,19.00
2022-10-17T04:25:38.921Z,19.30
2022-10-17T04:26:41.046Z,20.27
2022-10-17T04:27:42.940Z,20.01
2022-10-17T04:28:44.815Z,20.41
2022-10-17T04:29:46.815Z,17.78
2022-10-17T04:31:01.187Z,18.01
2022-10-17T04:32:03.520Z,18.10
2022-10-17T04:33:05.608Z,16.75
2022-10-17T04:34:07.563Z,16.60
2022-10-17T04:35:09.571Z,15.51
2022-10-17T04:36:15.910Z,16.08
2022-10-17T04:37:17.940Z,15.17
2022-10-17T04:38:20.704Z,16.51
2022-10-17T04:39:23.780Z,15.55
2022-10-17T04:40:25.786Z,15.66
2022-10-17T04:41:27.683Z,17.03
2022-10-17T04:42:32.953Z,16.01
2022-10-17T04:43:36.607Z,14.91
2022-10-17T04:44:38.571Z,14.91
2022-10-17T04:45:40.577Z,15.51
2022-10-17T04:46:42.680Z,17.27
2022-10-17T04:47:44.609Z,17.53
2022-10-17T04:48:48.445Z,18.25
2022-10-17T04:49:50.630Z,16.43
2022-10-17T04:50:58.274Z,16.79
2022-10-17T04:52:00.263Z,16.44
2022-10-17T04:53:02.323Z,16.44
2022-10-17T04:54:04.505Z,16.47
2022-10-17T04:55:07.325Z,16.13
2022-10-17T04:56:16.353Z,15.07
2022-10-17T04:57:19.498Z,15.33
2022-10-17T04:58:21.989Z,15.55
2022-10-17T04:59:23.896Z,15.84
2022-10-17T05:00:25.882Z,16.05
2022-10-17T05:01:27.930Z,14.65
2022-10-17T05:02:30.206Z,14.95
2022-10-17T05:03:33.906Z,14.87
2022-10-17T05:04:36.010Z,14.76
2022-10-17T05:05:41.703Z,14.22
2022-10-17T05:06:43.827Z,15.29
2022-10-17T05:07:45.783Z,13.42
2022-10-17T05:08:47.869Z,13.98
2022-10-17T05:09:49.740Z,14.06
2022-10-17T05:10:51.800Z,15.07
2022-10-17T05:11:54.103Z,15.17
2022-10-17T05:12:56.212Z,14.31
2022-10-17T05:14:00.229Z,14.56
2022-10-17T05:15:02.121Z,13.93
2022-10-17T05:16:04.733Z,13.91
2022-10-17T05:17:06.674Z,13.95
2022-10-17T05:18:08.570Z,14.01
2022-10-17T05:19:12.706Z,13.39
2022-10-17T05:20:15.293Z,13.56
2022-10-17T05:21:17.491Z,13.36
2022-10-17T05:22:19.510Z,13.47
2022-10-17T05:23:22.258Z,13.79
2022-10-17T05:24:24.142Z,13.52
2022-10-17T05:25:26.197Z,13.42
2022-10-17T05:26:28.193Z,13.21
2022-10-17T05:27:30.100Z,13.19
2022-10-17T05:28:33.353Z,14.40
2022-10-17T05:29:35.323Z,13.49
2022-10-17T05:30:37.721Z,13.42
2022-10-17T05:33:54.397Z,13.44
2022-10-17T05:34:56.423Z,12.61
2022-10-17T05:35:59.181Z,14.07
2022-10-17T05:37:01.279Z,14.46
2022-10-17T05:38:03.221Z,17.95
2022-10-17T05:39:05.143Z,22.49
2022-10-17T05:40:08.351Z,25.18
2022-10-17T05:41:10.397Z,24.47
2022-10-17T05:42:14.938Z,18.67
2022-10-17T05:43:17.426Z,14.75
2022-10-17T05:44:19.520Z,13.22
2022-10-17T05:45:21.784Z,12.77
2022-10-17T05:46:23.767Z,11.77
2022-10-17T05:47:25.875Z,11.90
2022-10-17T05:48:27.790Z,12.62
2022-10-17T05:49:43.963Z,13.39
2022-10-17T05:50:34.523Z,12.16
2022-10-17T05:51:36.489Z,12.28
2022-10-17T05:52:38.573Z,12.33
2022-10-17T05:53:41.318Z,12.41
2022-10-17T05:54:43.492Z,11.34
2022-10-17T05:55:45.425Z,12.01
2022-10-17T05:56:52.918Z,12.97
2022-10-17T05:57:54.837Z,13.04
2022-10-17T05:59:01.004Z,12.53
2022-10-17T06:00:01.710Z,13.66
2022-10-17T06:01:07.129Z,13.61
2022-10-17T06:02:12.497Z,13.11
2022-10-17T06:03:14.750Z,13.72
2022-10-17T06:04:17.199Z,12.67
2022-10-17T06:05:19.763Z,13.54
2022-10-17T06:06:22.295Z,12.88
2022-10-17T06:07:24.201Z,14.44
2022-10-17T06:08:26.087Z,13.33
2022-10-17T06:09:28.427Z,12.86
2022-10-17T06:10:30.427Z,12.89
2022-10-17T06:11:32.505Z,12.61
2022-10-17T06:12:34.408Z,12.69
2022-10-17T06:13:36.695Z,12.90
2022-10-17T06:14:38.585Z,13.01
2022-10-17T06:15:40.462Z,13.17
2022-10-17T06:16:42.477Z,13.16
2022-10-17T06:17:44.483Z,13.09
2022-10-17T06:18:46.397Z,13.15
2022-10-17T06:19:48.435Z,13.03
2022-10-17T06:20:50.424Z,12.65
2022-10-17T06:21:52.400Z,13.68
2022-10-17T06:22:55.036Z,12.77
2022-10-17T06:23:56.952Z,14.23
2022-10-17T06:24:58.829Z,13.71
2022-10-17T06:26:02.860Z,11.91
2022-10-17T06:27:09.339Z,12.01
2022-10-17T06:28:08.719Z,10.89
2022-10-17T06:29:10.717Z,10.35
2022-10-17T06:30:13.767Z,9.96
2022-10-17T06:31:16.936Z,11.02
2022-10-17T06:32:19.113Z,9.79
2022-10-17T06:33:21.549Z,10.73
2022-10-17T06:34:23.637Z,11.63
2022-10-17T06:35:25.528Z,9.42
2022-10-17T06:36:27.512Z,10.39
2022-10-17T06:37:36.452Z,10.09
2022-10-17T06:38:37.778Z,10.17
2022-10-17T06:39:39.671Z,11.37
2022-10-17T06:40:41.667Z,11.33
2022-10-17T06:41:43.809Z,11.21
2022-10-17T06:42:45.767Z,12.11
2022-10-17T06:43:48.179Z,10.43
2022-10-17T06:44:50.150Z,10.75
2022-10-17T06:45:52.061Z,10.59
2022-10-17T06:46:54.425Z,8.95
2022-10-17T06:47:56.300Z,10.37
2022-10-17T06:48:58.176Z,10.33
2022-10-17T06:50:00.059Z,10.85
2022-10-17T06:51:04.057Z,11.65
2022-10-17T06:52:06.098Z,13.36
2022-10-17T06:53:08.055Z,11.17
2022-10-17T06:54:09.933Z,11.24
2022-10-17T06:55:12.029Z,10.03
2022-10-17T06:56:14.714Z,10.33
2022-10-17T06:57:17.421Z,11.02
2022-10-17T06:58:19.416Z,11.89
2022-10-17T06:59:22.149Z,10.99
2022-10-17T07:00:24.412Z,12.48
2022-10-17T07:01:26.356Z,10.81
2022-10-17T07:02:28.566Z,10.16
2022-10-17T07:03:31.768Z,10.85
2022-10-17T07:04:33.676Z,11.03
2022-10-17T07:05:35.555Z,10.29
2022-10-17T07:06:38.065Z,9.64
2022-10-17T07:07:43.116Z,9.69
2022-10-17T07:08:45.216Z,10.36
2022-10-17T07:09:47.135Z,9.85
2022-10-17T07:10:50.108Z,8.01
2022-10-17T07:11:54.017Z,8.13
2022-10-17T07:12:55.955Z,8.58
2022-10-17T07:13:58.061Z,8.34
2022-10-17T07:15:00.064Z,8.27
2022-10-17T07:16:02.454Z,7.72
2022-10-17T07:17:04.597Z,7.93
2022-10-17T07:18:06.986Z,8.62
2022-10-17T07:19:08.951Z,8.15
2022-10-17T07:20:12.103Z,7.89
2022-10-17T07:21:14.105Z,8.26
2022-10-17T07:22:16.123Z,9.09
2022-10-17T07:23:21.100Z,9.03
2022-10-17T07:24:23.274Z,8.73
2022-10-17T07:25:25.518Z,10.80
2022-10-17T07:26:27.964Z,8.89
2022-10-17T07:27:30.273Z,8.99
2022-10-17T07:28:38.157Z,9.39
2022-10-17T07:29:40.531Z,9.68
2022-10-17T07:30:42.916Z,8.36
2022-10-17T07:31:45.269Z,8.61
2022-10-17T07:32:47.458Z,8.93
2022-10-17T07:33:49.934Z,10.50
2022-10-17T07:34:52.141Z,8.87
2022-10-17T07:35:54.025Z,8.35
2022-10-17T07:36:56.607Z,8.66
2022-10-17T07:37:58.528Z,8.93
2022-10-17T07:39:00.605Z,11.82
2022-10-17T07:40:03.638Z,9.41
2022-10-17T07:41:07.549Z,10.48
2022-10-17T07:42:09.630Z,8.36
2022-10-17T07:43:11.666Z,8.54
2022-10-17T07:44:13.591Z,7.63
2022-10-17T07:45:15.494Z,7.57
2022-10-17T07:46:17.597Z,8.17
2022-10-17T07:47:20.309Z,9.07
2022-10-17T07:48:23.676Z,8.69
2022-10-17T07:49:25.588Z,8.83
2022-10-17T07:50:28.926Z,9.78
2022-10-17T07:51:31.159Z,9.32
2022-10-17T07:52:33.554Z,8.81
2022-10-17T07:53:37.443Z,9.77
2022-10-17T07:54:39.752Z,8.14
2022-10-17T07:55:42.457Z,6.99
2022-10-17T07:56:44.598Z,7.97
2022-10-17T07:57:46.488Z,8.02
2022-10-17T07:58:48.467Z,7.65
2022-10-17T07:59:50.711Z,8.17
2022-10-17T08:00:52.881Z,7.49
2022-10-17T08:01:59.274Z,7.64
2022-10-17T08:03:01.291Z,7.86
2022-10-17T08:04:03.421Z,7.99
2022-10-17T08:05:06.160Z,7.09
2022-10-17T08:06:08.145Z,8.76
2022-10-17T08:07:19.572Z,7.38
2022-10-17T08:08:17.530Z,7.64
2022-10-17T08:09:18.558Z,6.40
2022-10-17T08:10:21.792Z,6.48
2022-10-17T08:11:23.958Z,6.69
2022-10-17T08:12:27.179Z,6.63
2022-10-17T08:13:29.507Z,5.61
2022-10-17T08:14:31.645Z,6.62
2022-10-17T08:15:33.541Z,5.71
2022-10-17T08:16:36.035Z,5.97
2022-10-17T08:17:38.936Z,5.53
2022-10-17T08:18:42.655Z,5.58
2022-10-17T08:19:44.587Z,5.54
2022-10-17T08:20:46.610Z,5.91
2022-10-17T08:22:59.838Z,5.22
2022-10-17T08:24:01.731Z,5.76
2022-10-17T08:25:04.962Z,5.98
2022-10-17T08:26:08.504Z,6.16
2022-10-17T08:27:10.447Z,5.56
2022-10-17T08:28:12.406Z,5.11
2022-10-17T08:29:15.915Z,5.70
2022-10-17T08:30:18.026Z,5.22
2022-10-17T08:31:20.704Z,5.44
2022-10-17T08:32:25.974Z,6.27
2022-10-17T08:33:27.903Z,5.41
2022-10-17T08:34:29.819Z,6.07
2022-10-17T08:35:31.710Z,5.03
2022-10-17T08:36:33.893Z,5.05
2022-10-17T08:37:36.073Z,5.35
2022-10-17T08:38:40.365Z,4.87
2022-10-17T08:39:42.555Z,5.42
2022-10-17T08:40:48.159Z,5.64
2022-10-17T08:42:24.394Z,5.02
2022-10-17T08:43:53.205Z,5.62
2022-10-17T08:45:15.870Z,5.61
2022-10-17T08:46:20.029Z,4.92
2022-10-17T08:48:48.698Z,5.30
2022-10-17T08:49:54.363Z,5.31
2022-10-17T08:51:03.257Z,7.97
2022-10-17T08:52:08.947Z,8.45
2022-10-17T08:53:32.788Z,6.06
2022-10-17T08:55:54.045Z,5.43
2022-10-17T08:56:56.914Z,6.29
2022-10-17T08:57:59.409Z,5.29
2022-10-17T08:59:08.126Z,8.34
2022-10-17T09:00:14.588Z,8.30
2022-10-17T09:01:26.566Z,7.53
2022-10-17T09:02:37.876Z,6.46
2022-10-17T09:04:56.521Z,5.62
2022-10-17T09:06:07.987Z,4.17
2022-10-17T09:07:13.669Z,4.52
2022-10-17T09:08:34.599Z,4.94
2022-10-17T09:09:40.351Z,5.36
2022-10-17T09:10:46.122Z,5.58
2022-10-17T09:11:58.022Z,4.72
2022-10-17T09:13:06.981Z,7.19
2022-10-17T09:14:31.229Z,9.06
2022-10-17T09:16:01.585Z,6.93
2022-10-17T09:17:19.545Z,4.29
2022-10-17T09:18:28.049Z,4.36
2022-10-17T09:19:42.474Z,4.32
2022-10-17T09:20:51.025Z,4.61
2022-10-17T09:21:59.791Z,4.58
2022-10-17T09:24:21.743Z,4.09
2022-10-17T09:25:25.240Z,3.54
2022-10-17T09:26:28.050Z,4.19
2022-10-17T09:27:33.688Z,4.37
2022-10-17T09:28:38.229Z,4.73
2022-10-17T09:29:44.033Z,4.05
2022-10-17T09:30:55.416Z,4.42
2022-10-17T09:32:03.972Z,3.50
2022-10-17T09:33:28.436Z,4.27
2022-10-17T09:34:26.683Z,4.02
2022-10-17T09:35:28.946Z,3.92
2022-10-17T09:36:36.047Z,5.11
2022-10-17T09:37:38.453Z,4.27
2022-10-17T09:38:43.187Z,4.73
2022-10-17T09:39:45.768Z,4.04
2022-10-17T09:40:56.954Z,4.11
2022-10-17T09:42:00.854Z,4.08
2022-10-17T09:43:05.199Z,4.25
2022-10-17T09:44:16.688Z,4.09
2022-10-17T09:45:21.649Z,3.96
2022-10-17T09:46:35.822Z,4.27
2022-10-17T09:50:24.078Z,3.92
2022-10-17T09:51:26.874Z,3.69
2022-10-17T09:52:35.771Z,3.62
2022-10-17T09:53:40.675Z,4.21
2022-10-17T09:54:49.497Z,4.14
2022-10-17T09:55:58.261Z,3.75
2022-10-17T09:57:03.930Z,3.85
2022-10-17T09:58:07.813Z,3.58
2022-10-17T09:59:13.932Z,4.39
2022-10-17T10:00:22.465Z,3.97
2022-10-17T10:01:27.579Z,3.99
2022-10-17T10:02:31.071Z,4.47
2022-10-17T10:03:33.410Z,3.74
2022-10-17T10:04:41.544Z,3.45
2022-10-17T10:05:41.110Z,4.21
2022-10-17T10:07:04.341Z,4.35
2022-10-17T10:08:18.308Z,4.03
2022-10-17T10:09:23.184Z,4.41
2022-10-17T10:10:28.173Z,3.94
2022-10-17T10:11:49.236Z,4.22
2022-10-17T10:13:16.524Z,5.22
2022-10-17T10:14:34.828Z,12.91
2022-10-17T10:15:39.786Z,13.43
2022-10-17T10:16:44.656Z,13.74
2022-10-17T10:17:46.732Z,12.94
2022-10-17T10:18:50.966Z,10.21
2022-10-17T10:19:53.716Z,16.02
2022-10-17T10:21:08.263Z,12.60
2022-10-17T10:22:15.927Z,10.59
2022-10-17T10:23:18.940Z,11.31
2022-10-17T10:24:20.843Z,9.68
2022-10-17T10:25:22.911Z,6.80
2022-10-17T10:26:28.616Z,4.53
2022-10-17T10:27:30.787Z,4.87
2022-10-17T10:28:35.644Z,10.01
2022-10-17T10:29:43.402Z,4.38
2022-10-17T10:30:48.838Z,5.51
2022-10-17T10:31:52.867Z,3.93
2022-10-17T10:32:58.151Z,4.89
2022-10-17T10:34:03.091Z,4.22
2022-10-17T10:35:23.286Z,4.23
2022-10-17T10:36:27.795Z,4.05
2022-10-17T10:37:39.358Z,3.92
2022-10-17T10:38:41.965Z,4.54
2022-10-17T10:39:50.819Z,4.73
2022-10-17T10:40:57.324Z,4.46
2022-10-17T10:42:02.369Z,4.23
2022-10-17T10:43:05.973Z,4.88
2022-10-17T10:44:11.626Z,5.96
2022-10-17T10:45:46.443Z,4.83
2022-10-17T10:46:28.191Z,5.85
2022-10-17T10:47:32.511Z,5.95
2022-10-17T10:48:36.426Z,4.59
2022-10-17T10:49:38.909Z,4.50
2022-10-17T10:52:03.281Z,4.53
2022-10-17T10:53:09.068Z,3.76
2022-10-17T10:54:17.520Z,4.10
2022-10-17T10:55:32.127Z,4.11
2022-10-17T10:56:43.678Z,4.11
2022-10-17T10:57:48.850Z,4.91
2022-10-17T10:59:10.128Z,4.43
2022-10-17T11:00:16.635Z,4.32
2022-10-17T11:01:25.003Z,4.71
2022-10-17T11:02:39.427Z,4.64
2022-10-17T11:04:03.361Z,5.06
2022-10-17T11:05:15.425Z,4.22
2022-10-17T11:06:21.704Z,3.88
2022-10-17T11:07:33.498Z,4.41
2022-10-17T11:08:44.939Z,5.49
2022-10-17T11:10:12.304Z,6.09
2022-10-17T11:11:20.911Z,4.49
2022-10-17T11:12:32.849Z,4.48
2022-10-17T11:13:44.680Z,4.36
2022-10-17T11:15:02.653Z,4.21
2022-10-17T11:16:43.546Z,3.95
2022-10-17T11:17:52.217Z,4.34
2022-10-17T11:19:16.212Z,3.92
2022-10-17T11:20:25.585Z,4.70
2022-10-17T11:22:51.378Z,6.38
2022-10-17T11:23:59.799Z,8.26
2022-10-17T11:25:24.086Z,18.34
2022-10-17T11:26:29.768Z,13.43
2022-10-17T11:27:33.734Z,7.75
2022-10-17T11:28:36.039Z,9.85
2022-10-17T11:29:41.504Z,10.99
2022-10-17T11:30:47.312Z,7.05
2022-10-17T11:31:53.257Z,10.36
2022-10-17T11:32:59.309Z,6.60
2022-10-17T11:34:04.983Z,4.67
2022-10-17T11:35:29.026Z,4.01
2022-10-17T11:36:35.119Z,3.75
2022-10-17T11:37:40.931Z,4.16
2022-10-17T11:38:46.936Z,4.02
2022-10-17T11:40:05.204Z,4.47
2022-10-17T11:41:13.769Z,5.19
2022-10-17T11:42:22.470Z,5.63
2022-10-17T11:43:34.035Z,10.83
2022-10-17T11:44:38.926Z,10.62
2022-10-17T11:45:44.764Z,10.24
2022-10-17T11:46:50.582Z,9.26
2022-10-17T11:48:02.391Z,6.89
2022-10-17T11:49:19.181Z,5.74
2022-10-17T11:53:57.176Z,3.68
2022-10-17T11:56:19.518Z,3.56
2022-10-17T11:57:48.421Z,3.90
2022-10-17T11:58:54.589Z,3.82
2022-10-17T12:00:20.350Z,4.11
2022-10-17T12:01:40.277Z,3.21
2022-10-17T12:02:48.877Z,4.48
2022-10-17T12:03:57.414Z,2.98
2022-10-17T12:05:03.164Z,3.81
2022-10-17T12:06:29.566Z,3.69
2022-10-17T12:08:59.013Z,3.38
2022-10-17T12:10:38.534Z,3.94
2022-10-17T12:11:50.607Z,3.66
2022-10-17T12:12:52.647Z,3.48
2022-10-17T12:13:55.759Z,3.83
2022-10-17T12:15:18.268Z,3.58
2022-10-17T12:16:24.077Z,3.76
2022-10-17T12:17:36.615Z,3.37
2022-10-17T12:18:38.789Z,3.12
2022-10-17T12:19:40.908Z,3.46
2022-10-17T12:20:43.093Z,3.57
2022-10-17T12:22:00.699Z,3.65
2022-10-17T12:23:12.383Z,3.58
2022-10-17T12:24:26.700Z,3.75
2022-10-17T12:27:44.315Z,3.36
2022-10-17T12:28:47.575Z,3.65
2022-10-17T12:29:51.992Z,3.61
2022-10-17T12:31:03.374Z,3.80
2022-10-17T12:32:12.210Z,3.62
2022-10-17T12:33:20.728Z,3.51
2022-10-17T12:34:23.869Z,3.33
2022-10-17T12:35:27.346Z,3.57
2022-10-17T12:36:34.572Z,3.14
2022-10-17T12:37:52.974Z,3.11
2022-10-17T12:39:05.170Z,3.02
2022-10-17T12:40:37.646Z,3.29
2022-10-17T12:41:44.639Z,3.14
2022-10-17T12:42:49.400Z,3.69
2022-10-17T12:43:53.131Z,4.15
2022-10-17T12:44:55.179Z,3.72
2022-10-17T12:45:58.942Z,3.65
2022-10-17T12:47:10.544Z,3.09
2022-10-17T12:48:34.465Z,3.65
2022-10-17T12:49:42.873Z,3.67
2022-10-17T12:51:30.859Z,3.94
2022-10-17T12:52:18.463Z,3.37
2022-10-17T12:53:24.484Z,2.82
2022-10-17T12:54:31.402Z,3.26
2022-10-17T12:55:34.328Z,4.31
2022-10-17T12:56:40.105Z,3.46
2022-10-17T12:57:58.679Z,5.43
2022-10-17T12:59:02.836Z,7.59
2022-10-17T13:00:25.418Z,5.32
2022-10-17T13:01:31.170Z,5.24
2022-10-17T13:02:33.720Z,5.79
2022-10-17T13:03:40.503Z,6.54
2022-10-17T13:04:42.702Z,4.36
2022-10-17T13:05:48.904Z,4.19
2022-10-17T13:06:54.296Z,4.57
2022-10-17T13:07:59.974Z,3.78
2022-10-17T13:09:05.667Z,3.25
2022-10-17T13:10:24.312Z,4.07
2022-10-17T13:11:29.489Z,3.93
2022-10-17T13:12:38.922Z,4.02
2022-10-17T13:13:48.867Z,5.08
2022-10-17T13:14:53.207Z,4.89
2022-10-17T13:15:55.250Z,5.65
2022-10-17T13:17:02.757Z,4.94
2022-10-17T13:18:08.294Z,4.33
2022-10-17T13:19:17.375Z,3.62
2022-10-17T13:20:25.454Z,4.09
2022-10-17T13:21:27.401Z,4.30
2022-10-17T13:22:32.786Z,4.09
2022-10-17T13:23:37.210Z,5.47
2022-10-17T13:24:40.575Z,6.13
2022-10-17T13:25:42.481Z,5.97
2022-10-17T13:26:45.430Z,3.92
2022-10-17T13:27:48.984Z,4.74
2022-10-17T13:29:12.977Z,3.79
2022-10-17T13:30:32.266Z,3.69
2022-10-17T13:31:38.977Z,4.09
2022-10-17T13:32:42.788Z,4.01
2022-10-17T13:33:44.679Z,4.23
2022-10-17T13:34:50.296Z,4.23
2022-10-17T13:35:59.893Z,4.11
2022-10-17T13:37:02.784Z,4.64
2022-10-17T13:38:06.027Z,3.98
2022-10-17T13:39:13.130Z,4.31
2022-10-17T13:40:40.831Z,3.76
2022-10-17T13:41:36.279Z,3.63
2022-10-17T13:42:39.779Z,4.08
2022-10-17T13:43:44.369Z,4.54
2022-10-17T13:46:19.147Z,5.59
2022-10-17T13:47:14.013Z,6.37
2022-10-17T13:48:28.039Z,3.95
2022-10-17T13:49:39.977Z,4.18
2022-10-17T13:50:45.960Z,12.71
2022-10-17T13:51:52.445Z,5.76
2022-10-17T13:53:21.315Z,3.98
2022-10-17T13:54:32.702Z,3.47
2022-10-17T13:56:36.775Z,4.81
2022-10-17T13:57:38.658Z,5.57
2022-10-17T13:58:50.147Z,4.27
2022-10-17T14:01:03.516Z,4.87
2022-10-17T14:02:18.551Z,4.62
2022-10-17T14:03:21.781Z,5.11
2022-10-17T14:04:24.080Z,3.85
2022-10-17T14:05:26.422Z,4.57
2022-10-17T14:06:30.629Z,4.43
2022-10-17T14:08:16.797Z,4.36
2022-10-17T14:09:07.080Z,4.30
2022-10-17T14:10:25.031Z,4.42
2022-10-17T14:11:36.429Z,4.51
2022-10-17T14:12:42.149Z,4.64
2022-10-17T14:13:47.831Z,3.74
2022-10-17T14:15:09.663Z,3.92
2022-10-17T14:16:00.411Z,4.35
2022-10-17T14:17:02.498Z,4.08
2022-10-17T14:18:10.448Z,4.10
2022-10-17T14:19:31.236Z,4.17
2022-10-17T14:21:28.687Z,3.86
2022-10-17T14:21:48.103Z,3.71
2022-10-17T14:23:04.458Z,4.06
2022-10-17T14:24:17.698Z,3.84
2022-10-17T14:25:38.080Z,3.71
2022-10-17T14:26:48.594Z,5.01
2022-10-17T14:27:56.490Z,4.94
2022-10-17T14:29:04.788Z,4.02
2022-10-17T14:30:55.198Z,5.23
2022-10-17T14:31:37.050Z,4.63
2022-10-17T14:32:42.295Z,4.71
2022-10-17T14:33:50.666Z,4.71
2022-10-17T14:35:00.691Z,5.03
2022-10-17T14:36:01.164Z,4.81
2022-10-17T14:37:09.449Z,4.23
2022-10-17T14:38:12.830Z,3.88
2022-10-17T14:39:21.435Z,3.89
2022-10-17T14:40:25.789Z,3.92
2022-10-17T14:41:42.321Z,4.18
2022-10-17T14:42:39.089Z,4.49
2022-10-17T14:43:41.545Z,5.01
2022-10-17T14:44:47.427Z,5.83
2022-10-17T14:45:49.659Z,5.13
2022-10-17T14:48:17.586Z,5.96
2022-10-17T14:49:24.798Z,5.24
2022-10-17T14:50:29.839Z,5.88
2022-10-17T14:51:40.094Z,5.59
2022-10-17T14:52:36.502Z,7.29
2022-10-17T14:53:39.978Z,5.40
2022-10-17T14:54:47.292Z,6.92
2022-10-17T14:55:58.517Z,6.29
2022-10-17T14:58:18.416Z,6.51
2022-10-17T14:59:35.471Z,5.56
2022-10-17T15:00:25.769Z,5.91
2022-10-17T15:01:28.166Z,7.21
2022-10-17T15:02:30.755Z,7.05
2022-10-17T15:03:33.098Z,6.31
2022-10-17T15:04:35.014Z,6.25
2022-10-17T15:05:36.912Z,6.01
2022-10-17T15:06:38.982Z,6.09
2022-10-17T15:07:42.096Z,6.64
2022-10-17T15:09:48.462Z,6.89
2022-10-17T15:10:51.022Z,11.61